sensor_id;sensor_type;location;lat;lon;timestamp;pressure;altitude;pressure_sealevel;temperature;humidity
64602;BME280;68371;42.630;23.192;2023-05-21T00:01:35;92235.97;;;12.60;98.35
64602;BME280;68371;42.630;23.192;2023-05-21T00:04:01;92227.25;;;12.56;98.24
64602;BME280;68371;42.630;23.192;2023-05-21T00:06:30;92236.38;;;12.62;98.03
64602;BME280;68371;42.630;23.192;2023-05-21T00:08:58;92232.09;;;12.54;97.54
64602;BME280;68371;42.630;23.192;2023-05-21T00:11:25;92242.72;;;12.57;97.75
64602;BME280;68371;42.630;23.192;2023-05-21T00:13:51;92233.56;;;12.51;98.04
64602;BME280;68371;42.630;23.192;2023-05-21T00:16:18;92225.19;;;12.46;98.50
64602;BME280;68371;42.630;23.192;2023-05-21T00:18:45;92225.13;;;12.42;98.50
64602;BME280;68371;42.630;23.192;2023-05-21T00:21:14;92228.56;;;12.46;98.11
64602;BME280;68371;42.630;23.192;2023-05-21T00:23:47;92218.38;;;12.45;98.21
64602;BME280;68371;42.630;23.192;2023-05-21T00:26:17;92145.59;;;11.90;97.67
64602;BME280;68371;42.630;23.192;2023-05-21T00:28:44;92216.88;;;12.43;98.00
64602;BME280;68371;42.630;23.192;2023-05-21T00:31:11;92222.81;;;12.40;97.41
64602;BME280;68371;42.630;23.192;2023-05-21T00:33:37;92214.41;;;12.31;97.72
64602;BME280;68371;42.630;23.192;2023-05-21T00:36:04;92216.88;;;12.43;97.49
64602;BME280;68371;42.630;23.192;2023-05-21T00:38:31;92214.25;;;12.43;97.30
64602;BME280;68371;42.630;23.192;2023-05-21T00:40:59;92208.22;;;12.43;96.89
64602;BME280;68371;42.630;23.192;2023-05-21T00:43:27;92204.63;;;12.32;96.84
64602;BME280;68371;42.630;23.192;2023-05-21T00:45:54;92190.44;;;12.17;96.75
64602;BME280;68371;42.630;23.192;2023-05-21T00:48:23;92179.66;;;12.02;97.15
64602;BME280;68371;42.630;23.192;2023-05-21T00:50:50;92212.53;;;12.12;97.37
64602;BME280;68371;42.630;23.192;2023-05-21T00:53:20;92208.75;;;12.10;97.18
64602;BME280;68371;42.630;23.192;2023-05-21T00:55:49;92207.66;;;12.11;97.39
64602;BME280;68371;42.630;23.192;2023-05-21T00:58:16;92197.88;;;12.11;97.56
64602;BME280;68371;42.630;23.192;2023-05-21T01:00:46;92199.53;;;12.00;97.86
64602;BME280;68371;42.630;23.192;2023-05-21T01:03:13;92195.50;;;11.87;98.55
64602;BME280;68371;42.630;23.192;2023-05-21T01:05:41;92203.41;;;11.87;98.96
64602;BME280;68371;42.630;23.192;2023-05-21T01:08:09;92202.47;;;11.95;98.36
64602;BME280;68371;42.630;23.192;2023-05-21T01:10:37;92199.41;;;11.93;98.54
64602;BME280;68371;42.630;23.192;2023-05-21T01:13:03;92194.06;;;11.89;98.16
64602;BME280;68371;42.630;23.192;2023-05-21T01:15:30;92184.09;;;11.79;98.71
64602;BME280;68371;42.630;23.192;2023-05-21T01:17:59;92184.84;;;11.79;98.45
64602;BME280;68371;42.630;23.192;2023-05-21T01:20:27;92189.28;;;11.75;98.78
64602;BME280;68371;42.630;23.192;2023-05-21T01:22:57;92185.72;;;11.68;100.00
64602;BME280;68371;42.630;23.192;2023-05-21T01:25:25;92166.38;;;11.56;100.00
64602;BME280;68371;42.630;23.192;2023-05-21T01:27:51;92183.72;;;11.61;100.00
64602;BME280;68371;42.630;23.192;2023-05-21T01:30:21;92185.94;;;11.59;100.00
64602;BME280;68371;42.630;23.192;2023-05-21T01:32:55;92183.38;;;11.43;100.00
64602;BME280;68371;42.630;23.192;2023-05-21T01:35:26;92180.47;;;11.48;100.00
64602;BME280;68371;42.630;23.192;2023-05-21T01:38:02;92174.88;;;11.50;100.00
64602;BME280;68371;42.630;23.192;2023-05-21T01:40:34;92169.13;;;11.44;100.00
64602;BME280;68371;42.630;23.192;2023-05-21T01:43:04;92175.94;;;11.29;100.00
64602;BME280;68371;42.630;23.192;2023-05-21T01:45:35;92168.44;;;11.28;100.00
64602;BME280;68371;42.630;23.192;2023-05-21T01:48:06;92162.16;;;11.16;100.00
64602;BME280;68371;42.630;23.192;2023-05-21T01:50:34;92167.09;;;11.18;100.00
64602;BME280;68371;42.630;23.192;2023-05-21T01:53:02;92165.38;;;11.26;100.00
64602;BME280;68371;42.630;23.192;2023-05-21T01:55:30;92175.19;;;11.29;100.00
64602;BME280;68371;42.630;23.192;2023-05-21T01:57:58;92162.75;;;11.26;100.00
64602;BME280;68371;42.630;23.192;2023-05-21T02:00:26;92153.31;;;11.25;100.00
64602;BME280;68371;42.630;23.192;2023-05-21T02:02:54;92156.53;;;11.34;100.00
64602;BME280;68371;42.630;23.192;2023-05-21T02:05:23;92161.56;;;11.42;100.00
64602;BME280;68371;42.630;23.192;2023-05-21T02:07:50;92115.06;;;11.08;100.00
64602;BME280;68371;42.630;23.192;2023-05-21T02:10:27;92150.56;;;11.37;100.00
64602;BME280;68371;42.630;23.192;2023-05-21T02:12:54;92160.06;;;11.41;100.00
64602;BME280;68371;42.630;23.192;2023-05-21T02:15:20;92158.88;;;11.39;100.00
64602;BME280;68371;42.630;23.192;2023-05-21T02:17:49;92162.53;;;11.34;100.00
64602;BME280;68371;42.630;23.192;2023-05-21T02:20:19;92157.06;;;11.23;100.00
64602;BME280;68371;42.630;23.192;2023-05-21T02:22:48;92159.28;;;11.21;100.00
64602;BME280;68371;42.630;23.192;2023-05-21T02:25:16;92164.19;;;11.23;100.00
64602;BME280;68371;42.630;23.192;2023-05-21T02:27:45;92146.31;;;11.13;100.00
64602;BME280;68371;42.630;23.192;2023-05-21T02:30:13;92145.47;;;11.09;100.00
64602;BME280;68371;42.630;23.192;2023-05-21T02:32:41;92166.81;;;11.23;100.00
64602;BME280;68371;42.630;23.192;2023-05-21T02:35:11;92157.66;;;11.17;100.00
64602;BME280;68371;42.630;23.192;2023-05-21T02:37:39;92160.78;;;11.22;100.00
64602;BME280;68371;42.630;23.192;2023-05-21T02:40:07;92161.50;;;11.19;100.00
64602;BME280;68371;42.630;23.192;2023-05-21T02:42:34;92145.22;;;11.14;100.00
64602;BME280;68371;42.630;23.192;2023-05-21T02:45:06;92149.44;;;11.18;100.00
64602;BME280;68371;42.630;23.192;2023-05-21T02:47:32;92151.44;;;11.25;100.00
64602;BME280;68371;42.630;23.192;2023-05-21T02:50:00;92159.00;;;11.27;100.00
64602;BME280;68371;42.630;23.192;2023-05-21T02:52:27;92138.41;;;11.13;100.00
64602;BME280;68371;42.630;23.192;2023-05-21T02:54:56;92156.78;;;11.09;100.00
64602;BME280;68371;42.630;23.192;2023-05-21T02:57:26;92157.94;;;11.12;100.00
64602;BME280;68371;42.630;23.192;2023-05-21T02:59:53;92145.06;;;11.07;100.00
64602;BME280;68371;42.630;23.192;2023-05-21T03:02:22;92150.59;;;11.01;100.00
64602;BME280;68371;42.630;23.192;2023-05-21T03:04:50;92156.69;;;11.06;100.00
64602;BME280;68371;42.630;23.192;2023-05-21T03:07:17;92150.69;;;11.05;100.00
64602;BME280;68371;42.630;23.192;2023-05-21T03:09:44;92148.13;;;10.93;100.00
64602;BME280;68371;42.630;23.192;2023-05-21T03:12:11;92158.72;;;10.96;100.00
64602;BME280;68371;42.630;23.192;2023-05-21T03:14:38;92165.63;;;11.01;100.00
64602;BME280;68371;42.630;23.192;2023-05-21T03:17:06;92169.59;;;10.95;100.00
64602;BME280;68371;42.630;23.192;2023-05-21T03:19:34;92159.59;;;10.85;100.00
64602;BME280;68371;42.630;23.192;2023-05-21T03:22:02;92163.84;;;10.89;100.00
64602;BME280;68371;42.630;23.192;2023-05-21T03:24:29;92148.44;;;10.72;100.00
64602;BME280;68371;42.630;23.192;2023-05-21T03:26:56;92168.31;;;10.89;100.00
64602;BME280;68371;42.630;23.192;2023-05-21T03:29:23;92171.91;;;10.80;100.00
64602;BME280;68371;42.630;23.192;2023-05-21T03:31:51;92168.69;;;10.87;100.00
64602;BME280;68371;42.630;23.192;2023-05-21T03:34:19;92148.09;;;10.73;100.00
64602;BME280;68371;42.630;23.192;2023-05-21T03:36:47;92169.84;;;10.90;100.00
64602;BME280;68371;42.630;23.192;2023-05-21T03:39:14;92170.63;;;10.90;100.00
64602;BME280;68371;42.630;23.192;2023-05-21T03:41:40;92163.00;;;10.85;100.00
64602;BME280;68371;42.630;23.192;2023-05-21T03:44:07;92144.13;;;10.79;100.00
64602;BME280;68371;42.630;23.192;2023-05-21T03:46:34;92174.88;;;10.95;100.00
64602;BME280;68371;42.630;23.192;2023-05-21T03:49:01;92162.06;;;10.93;100.00
64602;BME280;68371;42.630;23.192;2023-05-21T03:51:28;92142.75;;;10.86;100.00
64602;BME280;68371;42.630;23.192;2023-05-21T03:53:59;92149.25;;;10.92;100.00
64602;BME280;68371;42.630;23.192;2023-05-21T03:56:27;92132.34;;;10.73;100.00
64602;BME280;68371;42.630;23.192;2023-05-21T03:58:54;92156.81;;;10.93;100.00
64602;BME280;68371;42.630;23.192;2023-05-21T04:01:23;92158.47;;;11.01;100.00
64602;BME280;68371;42.630;23.192;2023-05-21T04:03:50;92122.91;;;10.72;100.00
64602;BME280;68371;42.630;23.192;2023-05-21T04:06:17;92155.53;;;11.03;100.00
64602;BME280;68371;42.630;23.192;2023-05-21T04:08:43;92156.34;;;11.07;100.00
64602;BME280;68371;42.630;23.192;2023-05-21T04:11:11;92148.38;;;11.03;100.00
64602;BME280;68371;42.630;23.192;2023-05-21T04:13:38;92150.25;;;11.03;100.00
64602;BME280;68371;42.630;23.192;2023-05-21T04:16:05;92156.78;;;11.09;100.00
64602;BME280;68371;42.630;23.192;2023-05-21T04:18:33;92151.00;;;11.03;100.00
64602;BME280;68371;42.630;23.192;2023-05-21T04:20:59;92148.38;;;11.03;100.00
64602;BME280;68371;42.630;23.192;2023-05-21T04:23:27;92159.41;;;11.09;100.00
64602;BME280;68371;42.630;23.192;2023-05-21T04:25:55;92152.59;;;11.08;100.00
64602;BME280;68371;42.630;23.192;2023-05-21T04:28:23;92151.16;;;11.11;100.00
64602;BME280;68371;42.630;23.192;2023-05-21T04:30:54;92143.75;;;11.16;100.00
64602;BME280;68371;42.630;23.192;2023-05-21T04:33:21;92150.19;;;11.19;100.00
64602;BME280;68371;42.630;23.192;2023-05-21T04:35:50;92144.53;;;11.17;100.00
64602;BME280;68371;42.630;23.192;2023-05-21T04:38:17;92147.84;;;11.14;100.00
64602;BME280;68371;42.630;23.192;2023-05-21T04:40:44;92141.06;;;11.13;100.00
64602;BME280;68371;42.630;23.192;2023-05-21T04:43:11;92130.53;;;11.13;100.00
64602;BME280;68371;42.630;23.192;2023-05-21T04:45:39;92145.63;;;11.16;100.00
64602;BME280;68371;42.630;23.192;2023-05-21T04:48:05;92145.00;;;11.22;100.00
64602;BME280;68371;42.630;23.192;2023-05-21T04:50:32;92137.63;;;11.28;100.00
64602;BME280;68371;42.630;23.192;2023-05-21T04:53:01;92142.47;;;11.26;100.00
64602;BME280;68371;42.630;23.192;2023-05-21T04:55:28;92140.34;;;11.32;100.00
64602;BME280;68371;42.630;23.192;2023-05-21T04:57:56;92144.53;;;11.36;100.00
64602;BME280;68371;42.630;23.192;2023-05-21T05:00:22;92145.16;;;11.30;100.00
64602;BME280;68371;42.630;23.192;2023-05-21T05:02:51;92141.00;;;11.29;100.00
64602;BME280;68371;42.630;23.192;2023-05-21T05:05:18;92152.22;;;11.45;100.00
64602;BME280;68371;42.630;23.192;2023-05-21T05:07:45;92153.44;;;11.48;100.00
64602;BME280;68371;42.630;23.192;2023-05-21T05:10:12;92152.38;;;11.52;100.00
64602;BME280;68371;42.630;23.192;2023-05-21T05:12:39;92150.69;;;11.63;100.00
64602;BME280;68371;42.630;23.192;2023-05-21T05:15:06;92154.31;;;11.75;100.00
64602;BME280;68371;42.630;23.192;2023-05-21T05:17:33;92155.28;;;11.86;100.00
64602;BME280;68371;42.630;23.192;2023-05-21T05:20:03;92150.91;;;11.94;100.00
64602;BME280;68371;42.630;23.192;2023-05-21T05:22:33;92160.88;;;12.04;100.00
64602;BME280;68371;42.630;23.192;2023-05-21T05:25:02;92154.16;;;12.07;99.93
64602;BME280;68371;42.630;23.192;2023-05-21T05:27:29;92156.25;;;12.20;98.88
64602;BME280;68371;42.630;23.192;2023-05-21T05:29:57;92150.06;;;12.32;99.21
64602;BME280;68371;42.630;23.192;2023-05-21T05:32:24;91962.09;;;11.21;97.19
64602;BME280;68371;42.630;23.192;2023-05-21T05:34:50;92150.84;;;12.56;97.91
64602;BME280;68371;42.630;23.192;2023-05-21T05:37:18;92147.59;;;12.66;96.95
64602;BME280;68371;42.630;23.192;2023-05-21T05:39:45;92160.69;;;12.86;95.61
64602;BME280;68371;42.630;23.192;2023-05-21T05:42:12;92155.38;;;12.82;95.58
64602;BME280;68371;42.630;23.192;2023-05-21T05:44:38;92163.06;;;12.94;96.24
64602;BME280;68371;42.630;23.192;2023-05-21T05:47:06;92151.13;;;13.00;95.61
64602;BME280;68371;42.630;23.192;2023-05-21T05:49:35;92147.97;;;13.18;94.70
64602;BME280;68371;42.630;23.192;2023-05-21T05:52:04;92150.75;;;13.29;94.26
64602;BME280;68371;42.630;23.192;2023-05-21T05:54:33;92147.09;;;13.37;93.63
64602;BME280;68371;42.630;23.192;2023-05-21T05:57:00;92149.88;;;13.48;93.77
64602;BME280;68371;42.630;23.192;2023-05-21T05:59:27;92150.00;;;13.58;93.34
64602;BME280;68371;42.630;23.192;2023-05-21T06:01:54;92146.00;;;13.72;92.32
64602;BME280;68371;42.630;23.192;2023-05-21T06:04:20;92139.03;;;13.90;88.33
64602;BME280;68371;42.630;23.192;2023-05-21T06:06:47;92146.38;;;14.08;88.24
64602;BME280;68371;42.630;23.192;2023-05-21T06:09:14;92134.00;;;14.15;86.45
64602;BME280;68371;42.630;23.192;2023-05-21T06:11:42;92134.53;;;14.32;83.96
64602;BME280;68371;42.630;23.192;2023-05-21T06:14:09;92146.75;;;14.47;83.57
64602;BME280;68371;42.630;23.192;2023-05-21T06:16:35;92134.84;;;14.64;84.16
64602;BME280;68371;42.630;23.192;2023-05-21T06:19:02;92137.19;;;14.80;80.36
64602;BME280;68371;42.630;23.192;2023-05-21T06:21:31;92132.69;;;14.84;78.48
64602;BME280;68371;42.630;23.192;2023-05-21T06:23:58;92126.75;;;14.98;77.53
64602;BME280;68371;42.630;23.192;2023-05-21T06:26:25;92130.22;;;15.09;78.04
64602;BME280;68371;42.630;23.192;2023-05-21T06:28:53;92102.31;;;15.19;76.89
64602;BME280;68371;42.630;23.192;2023-05-21T06:31:19;92107.28;;;15.31;77.99
64602;BME280;68371;42.630;23.192;2023-05-21T06:33:47;92106.22;;;15.43;75.02
64602;BME280;68371;42.630;23.192;2023-05-21T06:36:14;92106.66;;;15.59;75.58
64602;BME280;68371;42.630;23.192;2023-05-21T06:38:41;92111.94;;;15.67;75.84
64602;BME280;68371;42.630;23.192;2023-05-21T06:41:08;92112.69;;;15.67;74.84
64602;BME280;68371;42.630;23.192;2023-05-21T06:43:36;92106.72;;;15.74;75.70
64602;BME280;68371;42.630;23.192;2023-05-21T06:46:06;92091.97;;;15.80;77.58
64602;BME280;68371;42.630;23.192;2023-05-21T06:48:32;92107.16;;;16.01;73.60
64602;BME280;68371;42.630;23.192;2023-05-21T06:50:59;92100.00;;;16.12;74.22
64602;BME280;68371;42.630;23.192;2023-05-21T06:53:26;92109.84;;;16.22;73.68
64602;BME280;68371;42.630;23.192;2023-05-21T06:55:53;92126.91;;;16.36;69.10
64602;BME280;68371;42.630;23.192;2023-05-21T06:58:20;92126.91;;;16.54;68.63
64602;BME280;68371;42.630;23.192;2023-05-21T07:00:47;92103.78;;;16.54;65.97
64602;BME280;68371;42.630;23.192;2023-05-21T07:03:15;92112.53;;;16.73;69.15
64602;BME280;68371;42.630;23.192;2023-05-21T07:05:42;92115.94;;;16.84;69.50
64602;BME280;68371;42.630;23.192;2023-05-21T07:08:09;92108.38;;;16.93;63.78
64602;BME280;68371;42.630;23.192;2023-05-21T07:10:39;92120.47;;;16.98;66.18
64602;BME280;68371;42.630;23.192;2023-05-21T07:13:07;92128.81;;;17.04;66.56
64602;BME280;68371;42.630;23.192;2023-05-21T07:15:34;92127.28;;;17.17;68.80
64602;BME280;68371;42.630;23.192;2023-05-21T07:18:01;92122.72;;;17.25;68.12
64602;BME280;68371;42.630;23.192;2023-05-21T07:20:29;92137.88;;;17.24;66.76
64602;BME280;68371;42.630;23.192;2023-05-21T07:22:55;92134.13;;;17.07;64.86
64602;BME280;68371;42.630;23.192;2023-05-21T07:25:22;92136.41;;;16.98;65.22
64602;BME280;68371;42.630;23.192;2023-05-21T07:27:49;92145.13;;;16.95;66.10
64602;BME280;68371;42.630;23.192;2023-05-21T07:30:16;92136.78;;;16.96;67.01
64602;BME280;68371;42.630;23.192;2023-05-21T07:32:42;92134.53;;;16.88;67.94
64602;BME280;68371;42.630;23.192;2023-05-21T07:35:09;92133.38;;;16.85;67.88
64602;BME280;68371;42.630;23.192;2023-05-21T07:37:40;92133.75;;;16.94;67.33
64602;BME280;68371;42.630;23.192;2023-05-21T07:40:08;92094.31;;;16.78;67.24
64602;BME280;68371;42.630;23.192;2023-05-21T07:42:35;92134.47;;;17.20;65.42
64602;BME280;68371;42.630;23.192;2023-05-21T07:45:05;92136.72;;;17.29;65.31
64602;BME280;68371;42.630;23.192;2023-05-21T07:47:32;92134.41;;;17.41;65.15
64602;BME280;68371;42.630;23.192;2023-05-21T07:49:58;92132.09;;;17.58;66.04
64602;BME280;68371;42.630;23.192;2023-05-21T07:52:25;92135.78;;;17.82;66.33
64602;BME280;68371;42.630;23.192;2023-05-21T07:54:53;92124.00;;;17.90;65.79
64602;BME280;68371;42.630;23.192;2023-05-21T07:57:20;92137.66;;;17.99;62.33
64602;BME280;68371;42.630;23.192;2023-05-21T07:59:47;92114.91;;;17.88;61.05
64602;BME280;68371;42.630;23.192;2023-05-21T08:02:14;92131.22;;;17.97;60.48
64602;BME280;68371;42.630;23.192;2023-05-21T08:04:40;92127.44;;;17.94;61.87
64602;BME280;68371;42.630;23.192;2023-05-21T08:07:11;92135.28;;;18.12;60.46
64602;BME280;68371;42.630;23.192;2023-05-21T08:09:41;92147.09;;;18.11;59.87
64602;BME280;68371;42.630;23.192;2023-05-21T08:12:10;92143.63;;;18.14;59.92
64602;BME280;68371;42.630;23.192;2023-05-21T08:14:42;92142.50;;;18.15;61.31
64602;BME280;68371;42.630;23.192;2023-05-21T08:17:10;92140.97;;;18.14;59.13
64602;BME280;68371;42.630;23.192;2023-05-21T08:19:37;92125.00;;;18.18;62.10
64602;BME280;68371;42.630;23.192;2023-05-21T08:22:05;92143.41;;;18.54;61.40
64602;BME280;68371;42.630;23.192;2023-05-21T08:24:32;92124.00;;;18.57;57.13
64602;BME280;68371;42.630;23.192;2023-05-21T08:26:59;92135.53;;;18.36;58.94
64602;BME280;68371;42.630;23.192;2023-05-21T08:29:27;92147.97;;;18.53;62.06
64602;BME280;68371;42.630;23.192;2023-05-21T08:31:54;92155.53;;;18.58;57.96
64602;BME280;68371;42.630;23.192;2023-05-21T08:34:21;92146.81;;;18.58;61.16
64602;BME280;68371;42.630;23.192;2023-05-21T08:36:48;92149.44;;;18.61;55.79
64602;BME280;68371;42.630;23.192;2023-05-21T08:39:14;92152.31;;;18.85;57.70
64602;BME280;68371;42.630;23.192;2023-05-21T08:41:41;92151.78;;;19.05;54.47
64602;BME280;68371;42.630;23.192;2023-05-21T08:44:19;92154.28;;;18.74;50.32
64602;BME280;68371;42.630;23.192;2023-05-21T08:46:49;92151.63;;;18.74;52.12
64602;BME280;68371;42.630;23.192;2023-05-21T08:49:17;92158.09;;;18.69;50.38
64602;BME280;68371;42.630;23.192;2023-05-21T08:51:48;92128.66;;;18.42;51.00
64602;BME280;68371;42.630;23.192;2023-05-21T08:54:16;92154.06;;;18.50;50.19
64602;BME280;68371;42.630;23.192;2023-05-21T08:56:43;92151.03;;;18.52;49.47
64602;BME280;68371;42.630;23.192;2023-05-21T08:59:12;92161.19;;;18.68;51.62
64602;BME280;68371;42.630;23.192;2023-05-21T09:01:43;92156.94;;;18.74;50.88
64602;BME280;68371;42.630;23.192;2023-05-21T09:04:14;92167.53;;;18.85;51.45
64602;BME280;68371;42.630;23.192;2023-05-21T09:06:43;92154.81;;;19.07;54.00
64602;BME280;68371;42.630;23.192;2023-05-21T09:09:17;92156.50;;;19.28;53.71
64602;BME280;68371;42.630;23.192;2023-05-21T09:11:47;92158.03;;;19.29;53.25
64602;BME280;68371;42.630;23.192;2023-05-21T09:14:15;92169.63;;;19.08;52.17
64602;BME280;68371;42.630;23.192;2023-05-21T09:16:44;92159.75;;;19.08;52.04
64602;BME280;68371;42.630;23.192;2023-05-21T09:19:14;92164.75;;;18.99;52.78
64602;BME280;68371;42.630;23.192;2023-05-21T09:21:43;92172.13;;;18.80;51.94
64602;BME280;68371;42.630;23.192;2023-05-21T09:24:09;92164.59;;;18.68;54.19
64602;BME280;68371;42.630;23.192;2023-05-21T09:26:36;92140.19;;;18.77;54.01
64602;BME280;68371;42.630;23.192;2023-05-21T09:29:06;92165.50;;;18.99;50.54
64602;BME280;68371;42.630;23.192;2023-05-21T09:31:32;92176.94;;;19.00;50.95
64602;BME280;68371;42.630;23.192;2023-05-21T09:34:01;92151.88;;;18.94;51.96
64602;BME280;68371;42.630;23.192;2023-05-21T09:36:29;92128.47;;;18.67;52.78
64602;BME280;68371;42.630;23.192;2023-05-21T09:38:56;92158.72;;;18.95;50.15
64602;BME280;68371;42.630;23.192;2023-05-21T09:41:30;92160.13;;;19.07;53.52
64602;BME280;68371;42.630;23.192;2023-05-21T09:43:58;92156.84;;;18.92;49.70
64602;BME280;68371;42.630;23.192;2023-05-21T09:46:25;92144.41;;;18.74;45.87
64602;BME280;68371;42.630;23.192;2023-05-21T09:48:52;92159.19;;;18.83;46.13
64602;BME280;68371;42.630;23.192;2023-05-21T09:51:19;92156.91;;;18.81;46.60
64602;BME280;68371;42.630;23.192;2023-05-21T09:53:49;92149.66;;;18.85;45.72
64602;BME280;68371;42.630;23.192;2023-05-21T09:56:19;92153.50;;;18.73;43.32
64602;BME280;68371;42.630;23.192;2023-05-21T09:58:47;92151.59;;;18.77;42.94
64602;BME280;68371;42.630;23.192;2023-05-21T10:01:14;92155.13;;;18.64;44.04
64602;BME280;68371;42.630;23.192;2023-05-21T10:03:42;92155.84;;;18.68;45.82
64602;BME280;68371;42.630;23.192;2023-05-21T10:06:11;92146.78;;;18.61;43.75
64602;BME280;68371;42.630;23.192;2023-05-21T10:08:44;92152.06;;;18.65;43.99
64602;BME280;68371;42.630;23.192;2023-05-21T10:11:16;92149.81;;;18.60;47.98
64602;BME280;68371;42.630;23.192;2023-05-21T10:13:46;92147.16;;;18.60;45.00
64602;BME280;68371;42.630;23.192;2023-05-21T10:16:14;92147.19;;;18.56;42.77
64602;BME280;68371;42.630;23.192;2023-05-21T10:18:41;92156.69;;;18.57;45.34
64602;BME280;68371;42.630;23.192;2023-05-21T10:21:14;92151.38;;;18.54;45.44
64602;BME280;68371;42.630;23.192;2023-05-21T10:23:42;92145.72;;;18.48;45.82
64602;BME280;68371;42.630;23.192;2023-05-21T10:26:11;92102.53;;;18.33;46.84
64602;BME280;68371;42.630;23.192;2023-05-21T10:28:42;92117.53;;;18.61;42.06
64602;BME280;68371;42.630;23.192;2023-05-21T10:31:11;92132.31;;;18.66;43.76
64602;BME280;68371;42.630;23.192;2023-05-21T10:33:40;92111.03;;;18.62;43.33
64602;BME280;68371;42.630;23.192;2023-05-21T10:36:10;92133.69;;;18.85;43.99
64602;BME280;68371;42.630;23.192;2023-05-21T10:38:37;92137.13;;;18.86;45.81
64602;BME280;68371;42.630;23.192;2023-05-21T10:41:05;92139.75;;;18.89;44.49
64602;BME280;68371;42.630;23.192;2023-05-21T10:43:54;92141.31;;;18.83;45.21
64602;BME280;68371;42.630;23.192;2023-05-21T10:47:09;92141.19;;;18.97;44.25
64602;BME280;68371;42.630;23.192;2023-05-21T10:49:52;92141.25;;;18.94;44.92
64602;BME280;68371;42.630;23.192;2023-05-21T10:52:34;92134.84;;;18.84;43.97
64602;BME280;68371;42.630;23.192;2023-05-21T10:55:16;92134.13;;;18.73;45.20
64602;BME280;68371;42.630;23.192;2023-05-21T10:58:00;92139.78;;;18.86;47.39
64602;BME280;68371;42.630;23.192;2023-05-21T11:00:34;92135.22;;;19.28;48.10
64602;BME280;68371;42.630;23.192;2023-05-21T11:03:02;92104.00;;;19.62;48.02
64602;BME280;68371;42.630;23.192;2023-05-21T11:05:39;92113.69;;;20.14;43.92
64602;BME280;68371;42.630;23.192;2023-05-21T11:08:20;92123.78;;;20.30;43.79
64602;BME280;68371;42.630;23.192;2023-05-21T11:10:50;92127.22;;;20.27;45.55
64602;BME280;68371;42.630;23.192;2023-05-21T11:13:17;92123.66;;;20.37;44.86
64602;BME280;68371;42.630;23.192;2023-05-21T11:16:06;92128.19;;;20.40;45.17
64602;BME280;68371;42.630;23.192;2023-05-21T11:19:01;92124.91;;;20.29;43.86
64602;BME280;68371;42.630;23.192;2023-05-21T11:21:29;92130.59;;;20.04;46.08
64602;BME280;68371;42.630;23.192;2023-05-21T11:23:59;92132.72;;;19.86;45.88
64602;BME280;68371;42.630;23.192;2023-05-21T11:26:28;92124.50;;;19.73;45.55
64602;BME280;68371;42.630;23.192;2023-05-21T11:29:13;92128.44;;;19.57;46.34
64602;BME280;68371;42.630;23.192;2023-05-21T11:31:49;92109.88;;;19.50;45.74
64602;BME280;68371;42.630;23.192;2023-05-21T11:34:25;92116.22;;;19.60;45.69
64602;BME280;68371;42.630;23.192;2023-05-21T11:37:25;92119.19;;;19.69;46.70
64602;BME280;68371;42.630;23.192;2023-05-21T11:39:55;92112.28;;;20.06;48.15
64602;BME280;68371;42.630;23.192;2023-05-21T11:42:30;92112.19;;;20.40;46.16
64602;BME280;68371;42.630;23.192;2023-05-21T11:44:57;92100.69;;;20.44;44.49
64602;BME280;68371;42.630;23.192;2023-05-21T11:47:26;92103.00;;;20.41;44.80
64602;BME280;68371;42.630;23.192;2023-05-21T11:49:53;92106.31;;;20.26;44.04
64602;BME280;68371;42.630;23.192;2023-05-21T11:52:21;92116.56;;;20.27;44.83
64602;BME280;68371;42.630;23.192;2023-05-21T11:54:49;92110.75;;;20.05;43.73
64602;BME280;68371;42.630;23.192;2023-05-21T11:57:20;92105.19;;;19.96;44.97
64602;BME280;68371;42.630;23.192;2023-05-21T11:59:49;92100.28;;;19.91;44.17
64602;BME280;68371;42.630;23.192;2023-05-21T12:02:19;92074.63;;;19.70;46.31
64602;BME280;68371;42.630;23.192;2023-05-21T12:04:49;92107.66;;;19.79;44.70
64602;BME280;68371;42.630;23.192;2023-05-21T12:07:20;92098.63;;;19.70;46.22
64602;BME280;68371;42.630;23.192;2023-05-21T12:09:48;92101.66;;;19.68;47.02
64602;BME280;68371;42.630;23.192;2023-05-21T12:12:17;92100.22;;;19.64;47.09
64602;BME280;68371;42.630;23.192;2023-05-21T12:14:46;92094.13;;;19.63;46.54
64602;BME280;68371;42.630;23.192;2023-05-21T12:17:16;92059.03;;;19.37;47.02
64602;BME280;68371;42.630;23.192;2023-05-21T12:19:47;92094.16;;;19.59;47.21
64602;BME280;68371;42.630;23.192;2023-05-21T12:22:15;92097.19;;;19.61;47.11
64602;BME280;68371;42.630;23.192;2023-05-21T12:24:42;92098.44;;;19.53;46.85
64602;BME280;68371;42.630;23.192;2023-05-21T12:27:10;92097.31;;;19.51;49.01
64602;BME280;68371;42.630;23.192;2023-05-21T12:29:38;92101.47;;;19.52;50.06
64602;BME280;68371;42.630;23.192;2023-05-21T12:32:07;92094.22;;;19.52;50.87
64602;BME280;68371;42.630;23.192;2023-05-21T12:34:39;92091.22;;;19.50;52.35
64602;BME280;68371;42.630;23.192;2023-05-21T12:37:08;92089.69;;;19.53;52.62
64602;BME280;68371;42.630;23.192;2023-05-21T12:39:39;92083.53;;;19.56;52.80
64602;BME280;68371;42.630;23.192;2023-05-21T12:42:06;92087.28;;;19.62;52.09
64602;BME280;68371;42.630;23.192;2023-05-21T12:44:32;92093.69;;;19.68;51.17
64602;BME280;68371;42.630;23.192;2023-05-21T12:46:59;92087.09;;;19.80;49.91
64602;BME280;68371;42.630;23.192;2023-05-21T12:49:32;92081.94;;;19.96;48.49
64602;BME280;68371;42.630;23.192;2023-05-21T12:52:04;92086.31;;;20.10;49.31
64602;BME280;68371;42.630;23.192;2023-05-21T12:54:34;92075.06;;;20.26;47.64
64602;BME280;68371;42.630;23.192;2023-05-21T12:57:13;92082.09;;;20.40;47.76